sensor_id;sensor_type;location;lat;lon;timestamp;pressure;altitude;pressure_sealevel;temperature;humidity
21664;BME280;10993;52.510;13.456;2023-05-22T00:02:38;57520.63;;;-146.93;35.62
21664;BME280;10993;52.510;13.456;2023-05-22T00:07:42;57549.00;;;-146.93;35.64
21664;BME280;10993;52.510;13.456;2023-05-22T00:12:42;57488.22;;;-146.93;35.84
21664;BME280;10993;52.510;13.456;2023-05-22T00:17:44;57502.41;;;-146.93;35.93
21664;BME280;10993;52.510;13.456;2023-05-22T00:22:45;57389.00;;;-146.93;35.95
21664;BME280;10993;52.510;13.456;2023-05-22T00:27:47;57467.97;;;-146.93;36.18
21664;BME280;10993;52.510;13.456;2023-05-22T00:32:52;57467.97;;;-146.93;36.07
21664;BME280;10993;52.510;13.456;2023-05-22T00:37:52;57463.94;;;-146.93;36.36
21664;BME280;10993;52.510;13.456;2023-05-22T00:42:54;57386.97;;;-146.93;36.28
21664;BME280;10993;52.510;13.456;2023-05-22T00:47:56;57437.59;;;-146.93;36.46
21664;BME280;10993;52.510;13.456;2023-05-22T00:52:56;57401.16;;;-146.93;36.40
21664;BME280;10993;52.510;13.456;2023-05-22T00:57:56;57401.16;;;-146.93;36.29
21664;BME280;10993;52.510;13.456;2023-05-22T01:02:58;57411.28;;;-146.93;36.33
21664;BME280;10993;52.510;13.456;2023-05-22T01:08:00;58077.63;;;-146.93;36.50
21664;BME280;10993;52.510;13.456;2023-05-22T01:13:06;57338.38;;;-146.93;36.60
21664;BME280;10993;52.510;13.456;2023-05-22T01:18:12;57370.75;;;-146.93;36.51
21664;BME280;10993;52.510;13.456;2023-05-22T01:23:37;57324.19;;;-146.93;36.22
21664;BME280;10993;52.510;13.456;2023-05-22T01:28:55;57326.22;;;-146.93;36.51
21664;BME280;10993;52.510;13.456;2023-05-22T01:34:03;57326.22;;;-146.93;36.61
21664;BME280;10993;52.510;13.456;2023-05-22T01:39:04;57328.25;;;-146.93;36.47
21664;BME280;10993;52.510;13.456;2023-05-22T01:44:05;57316.09;;;-146.93;36.99
21664;BME280;10993;52.510;13.456;2023-05-22T01:49:07;57279.63;;;-146.93;37.00
21664;BME280;10993;52.510;13.456;2023-05-22T01:54:13;57289.75;;;-146.93;37.23
21664;BME280;10993;52.510;13.456;2023-05-22T01:59:21;57226.97;;;-146.93;37.52
21664;BME280;10993;52.510;13.456;2023-05-22T02:04:27;57220.91;;;-146.93;37.91
21664;BME280;10993;52.510;13.456;2023-05-22T02:09:29;57184.44;;;-146.93;37.96
21664;BME280;10993;52.510;13.456;2023-05-22T02:14:31;57152.06;;;-146.93;38.12
21664;BME280;10993;52.510;13.456;2023-05-22T02:19:34;57135.84;;;-146.93;38.57
21664;BME280;10993;52.510;13.456;2023-05-22T02:24:39;57095.34;;;-146.93;38.32
21664;BME280;10993;52.510;13.456;2023-05-22T02:29:40;57107.50;;;-146.93;38.45
21664;BME280;10993;52.510;13.456;2023-05-22T02:34:42;57123.69;;;-146.93;38.59
21664;BME280;10993;52.510;13.456;2023-05-22T02:39:43;57145.97;;;-146.93;38.69
21664;BME280;10993;52.510;13.456;2023-05-22T02:44:43;57097.38;;;-146.93;38.71
21664;BME280;10993;52.510;13.456;2023-05-22T02:49:45;57073.06;;;-146.93;39.01
21664;BME280;10993;52.510;13.456;2023-05-22T02:54:46;57103.44;;;-146.93;39.05
21664;BME280;10993;52.510;13.456;2023-05-22T02:59:46;57091.31;;;-146.93;39.23
21664;BME280;10993;52.510;13.456;2023-05-22T03:04:48;57010.31;;;-146.93;39.29
21664;BME280;10993;52.510;13.456;2023-05-22T03:09:48;57071.06;;;-146.93;39.64
21664;BME280;10993;52.510;13.456;2023-05-22T03:14:48;57030.56;;;-146.93;39.71
21664;BME280;10993;52.510;13.456;2023-05-22T03:19:50;57083.19;;;-146.93;39.88
21664;BME280;10993;52.510;13.456;2023-05-22T03:24:50;57020.44;;;-146.93;40.00
21664;BME280;10993;52.510;13.456;2023-05-22T03:29:51;57083.19;;;-146.93;39.82
21664;BME280;10993;52.510;13.456;2023-05-22T03:34:53;57064.97;;;-146.93;39.99
21664;BME280;10993;52.510;13.456;2023-05-22T03:39:53;57060.94;;;-146.93;40.18
21664;BME280;10993;52.510;13.456;2023-05-22T03:44:53;57069.03;;;-146.93;40.09
21664;BME280;10993;52.510;13.456;2023-05-22T03:49:55;57087.25;;;-146.93;39.89
21664;BME280;10993;52.510;13.456;2023-05-22T03:54:55;57255.34;;;-146.93;39.93
21664;BME280;10993;52.510;13.456;2023-05-22T03:59:56;57152.06;;;-146.93;39.38
21664;BME280;10993;52.510;13.456;2023-05-22T04:05:05;57241.16;;;-146.93;38.56
21664;BME280;10993;52.510;13.456;2023-05-22T04:10:06;57316.09;;;-146.93;37.43
21664;BME280;10993;52.510;13.456;2023-05-22T04:15:10;57399.13;;;-146.93;36.72
21664;BME280;10993;52.510;13.456;2023-05-22T04:20:12;57514.56;;;-146.93;35.62
21664;BME280;10993;52.510;13.456;2023-05-22T04:25:13;57688.72;;;-146.93;34.90
21664;BME280;10993;52.510;13.456;2023-05-22T04:30:14;57623.91;;;-146.93;34.43
21664;BME280;10993;52.510;13.456;2023-05-22T04:35:17;58719.81;;;-146.93;33.73
21664;BME280;10993;52.510;13.456;2023-05-22T04:40:18;58097.88;;;-146.93;32.44
21664;BME280;10993;52.510;13.456;2023-05-22T04:45:19;57909.50;;;-146.93;32.75
21664;BME280;10993;52.510;13.456;2023-05-22T04:50:21;57773.81;;;-146.93;33.90
21664;BME280;10993;52.510;13.456;2023-05-22T04:55:23;57713.03;;;-146.93;34.28
21664;BME280;10993;52.510;13.456;2023-05-22T05:00:23;57840.63;;;-146.93;34.13
21664;BME280;10993;52.510;13.456;2023-05-22T05:05:26;57636.06;;;-146.93;35.03
21664;BME280;10993;52.510;13.456;2023-05-22T05:10:27;57700.88;;;-146.93;34.22
21664;BME280;10993;52.510;13.456;2023-05-22T05:15:27;57810.25;;;-146.93;34.09
21664;BME280;10993;52.510;13.456;2023-05-22T05:20:29;57630.00;;;-146.93;35.29
21664;BME280;10993;52.510;13.456;2023-05-22T05:25:30;57731.25;;;-146.93;35.12
21664;BME280;10993;52.510;13.456;2023-05-22T05:30:30;57674.56;;;-146.93;35.44
21664;BME280;10993;52.510;13.456;2023-05-22T05:35:32;57670.50;;;-146.93;35.15
21664;BME280;10993;52.510;13.456;2023-05-22T05:40:32;57706.97;;;-146.93;35.50
21664;BME280;10993;52.510;13.456;2023-05-22T05:45:33;57652.28;;;-146.93;35.47
21664;BME280;10993;52.510;13.456;2023-05-22T05:50:34;57848.75;;;-146.93;34.91
21664;BME280;10993;52.510;13.456;2023-05-22T05:55:35;58174.84;;;-146.93;33.06
21664;BME280;10993;52.510;13.456;2023-05-22T06:00:35;58511.13;;;-146.93;31.61
21664;BME280;10993;52.510;13.456;2023-05-22T06:05:38;58806.91;;;-146.93;30.85
21664;BME280;10993;52.510;13.456;2023-05-22T06:10:38;58950.78;;;-146.93;30.14
21664;BME280;10993;52.510;13.456;2023-05-22T06:15:39;59153.38;;;-146.93;29.28
21664;BME280;10993;52.510;13.456;2023-05-22T06:20:40;59319.53;;;-146.93;29.12
21664;BME280;10993;52.510;13.456;2023-05-22T06:25:41;58332.88;;;-146.93;32.21
21664;BME280;10993;52.510;13.456;2023-05-22T06:30:41;58525.31;;;-146.93;32.00
21664;BME280;10993;52.510;13.456;2023-05-22T06:35:43;58545.56;;;-146.93;32.05
21664;BME280;10993;52.510;13.456;2023-05-22T06:40:43;58681.31;;;-146.93;31.45
21664;BME280;10993;52.510;13.456;2023-05-22T06:45:43;58501.00;;;-146.93;32.09
21664;BME280;10993;52.510;13.456;2023-05-22T06:50:45;58314.63;;;-146.93;32.54
21664;BME280;10993;52.510;13.456;2023-05-22T06:55:45;58446.31;;;-146.93;32.54
21664;BME280;10993;52.510;13.456;2023-05-22T07:00:46;58494.94;;;-146.93;32.65
21664;BME280;10993;52.510;13.456;2023-05-22T07:05:47;58843.38;;;-146.93;31.27
21664;BME280;10993;52.510;13.456;2023-05-22T07:10:48;58918.34;;;-146.93;31.22
21664;BME280;10993;52.510;13.456;2023-05-22T07:15:48;59052.06;;;-146.93;30.46
21664;BME280;10993;52.510;13.456;2023-05-22T07:20:50;59520.16;;;-146.93;29.63
21664;BME280;10993;52.510;13.456;2023-05-22T07:25:50;59779.56;;;-146.93;28.99
21664;BME280;10993;52.510;13.456;2023-05-22T07:30:51;59615.41;;;-146.93;29.32
21664;BME280;10993;52.510;13.456;2023-05-22T07:35:52;59702.53;;;-146.93;29.21
21664;BME280;10993;52.510;13.456;2023-05-22T07:40:53;60043.03;;;-146.93;28.44
21664;BME280;10993;52.510;13.456;2023-05-22T07:45:53;59874.81;;;-146.93;28.72
21664;BME280;10993;52.510;13.456;2023-05-22T07:50:55;59664.03;;;-146.93;29.45
21664;BME280;10993;52.510;13.456;2023-05-22T07:55:55;59416.81;;;-146.93;29.46
21664;BME280;10993;52.510;13.456;2023-05-22T08:00:55;59743.06;;;-146.93;29.05
21664;BME280;10993;52.510;13.456;2023-05-22T08:05:57;60462.59;;;-146.93;27.66
21664;BME280;10993;52.510;13.456;2023-05-22T08:10:58;60620.69;;;-146.93;27.40
21664;BME280;10993;52.510;13.456;2023-05-22T08:15:58;60762.59;;;-146.93;27.40
21664;BME280;10993;52.510;13.456;2023-05-22T08:21:00;60304.50;;;-146.93;28.05
21664;BME280;10993;52.510;13.456;2023-05-22T08:26:01;60288.28;;;-146.93;27.99
21664;BME280;10993;52.510;13.456;2023-05-22T08:31:01;60334.88;;;-146.93;27.72
21664;BME280;10993;52.510;13.456;2023-05-22T08:36:04;60116.00;;;-146.93;28.12
21664;BME280;10993;52.510;13.456;2023-05-22T08:41:05;59659.97;;;-146.93;29.19
21664;BME280;10993;52.510;13.456;2023-05-22T08:46:07;59270.91;;;-146.93;29.92
21664;BME280;10993;52.510;13.456;2023-05-22T08:51:12;59195.94;;;-146.93;30.33
21664;BME280;10993;52.510;13.456;2023-05-22T08:56:14;59414.78;;;-146.93;29.90
21664;BME280;10993;52.510;13.456;2023-05-22T09:01:15;60357.19;;;-146.93;27.94
21664;BME280;10993;52.510;13.456;2023-05-22T09:06:17;60162.59;;;-146.93;28.14
21664;BME280;10993;52.510;13.456;2023-05-22T09:11:17;59501.91;;;-146.93;29.56
21664;BME280;10993;52.510;13.456;2023-05-22T09:16:18;59907.22;;;-146.93;29.21
21664;BME280;10993;52.510;13.456;2023-05-22T09:21:20;59911.28;;;-146.93;28.87
21664;BME280;10993;52.510;13.456;2023-05-22T09:26:25;60118.00;;;-146.93;28.29
21664;BME280;10993;52.510;13.456;2023-05-22T09:31:27;60111.94;;;-146.93;28.03
21664;BME280;10993;52.510;13.456;2023-05-22T09:36:32;59899.13;;;-146.93;28.59
21664;BME280;10993;52.510;13.456;2023-05-22T09:41:34;59627.56;;;-146.93;29.11
21664;BME280;10993;52.510;13.456;2023-05-22T09:46:39;59473.56;;;-146.93;29.26
21664;BME280;10993;52.510;13.456;2023-05-22T09:51:41;59311.44;;;-146.93;29.59
21664;BME280;10993;52.510;13.456;2023-05-22T09:56:43;59388.44;;;-146.93;29.35
21664;BME280;10993;52.510;13.456;2023-05-22T10:01:44;59617.44;;;-146.93;29.12
21664;BME280;10993;52.510;13.456;2023-05-22T10:06:50;60055.19;;;-146.93;28.03
21664;BME280;10993;52.510;13.456;2023-05-22T10:11:52;59978.16;;;-146.93;28.10
21664;BME280;10993;52.510;13.456;2023-05-22T10:16:54;59657.97;;;-146.93;28.64
21664;BME280;10993;52.510;13.456;2023-05-22T10:22:02;60124.09;;;-146.93;27.84
21664;BME280;10993;52.510;13.456;2023-05-22T10:27:03;60314.63;;;-146.93;27.34
21664;BME280;10993;52.510;13.456;2023-05-22T10:32:08;60170.72;;;-146.93;27.07
21664;BME280;10993;52.510;13.456;2023-05-22T10:37:24;60065.31;;;-146.93;27.22
21664;BME280;10993;52.510;13.456;2023-05-22T10:42:30;60077.47;;;-146.93;27.47
21664;BME280;10993;52.510;13.456;2023-05-22T10:47:32;60170.72;;;-146.93;27.22
21664;BME280;10993;52.510;13.456;2023-05-22T10:52:34;59919.41;;;-146.93;27.17
21664;BME280;10993;52.510;13.456;2023-05-22T10:57:36;59574.88;;;-146.93;27.67
21664;BME280;10993;52.510;13.456;2023-05-22T11:02:39;59712.69;;;-146.93;27.54
21664;BME280;10993;52.510;13.456;2023-05-22T11:07:41;59939.66;;;-146.93;27.18
21664;BME280;10993;52.510;13.456;2023-05-22T11:12:42;60164.63;;;-146.93;26.34
21664;BME280;10993;52.510;13.456;2023-05-22T11:17:46;60041.00;;;-146.93;25.95
21664;BME280;10993;52.510;13.456;2023-05-22T11:22:55;59874.81;;;-146.93;26.56
21664;BME280;10993;52.510;13.456;2023-05-22T11:27:56;59680.25;;;-146.93;26.27
21664;BME280;10993;52.510;13.456;2023-05-22T11:32:58;59907.22;;;-146.93;26.04
21664;BME280;10993;52.510;13.456;2023-05-22T11:38:02;59655.94;;;-146.93;26.28
21664;BME280;10993;52.510;13.456;2023-05-22T11:43:03;59882.91;;;-146.93;25.95
21664;BME280;10993;52.510;13.456;2023-05-22T11:48:03;59929.53;;;-146.93;25.62
21664;BME280;10993;52.510;13.456;2023-05-22T11:53:06;59814.00;;;-146.93;25.78
21664;BME280;10993;52.510;13.456;2023-05-22T11:58:06;59706.59;;;-146.93;25.64
21664;BME280;10993;52.510;13.456;2023-05-22T12:03:06;59621.47;;;-146.93;25.88
21664;BME280;10993;52.510;13.456;2023-05-22T12:08:08;59741.06;;;-146.93;25.95
21664;BME280;10993;52.510;13.456;2023-05-22T12:13:08;59291.19;;;-146.93;26.26
21664;BME280;10993;52.510;13.456;2023-05-22T12:18:09;59323.59;;;-146.93;26.09
21664;BME280;10993;52.510;13.456;2023-05-22T12:23:20;59262.81;;;-146.93;26.19
21664;BME280;10993;52.510;13.456;2023-05-22T12:28:20;59248.63;;;-146.93;26.13
21664;BME280;10993;52.510;13.456;2023-05-22T12:33:24;59252.69;;;-146.93;26.21
21664;BME280;10993;52.510;13.456;2023-05-22T12:38:30;59143.25;;;-146.93;26.07
21664;BME280;10993;52.510;13.456;2023-05-22T12:43:31;59153.38;;;-146.93;26.37
21664;BME280;10993;52.510;13.456;2023-05-22T12:48:31;59149.34;;;-146.93;26.14
21664;BME280;10993;52.510;13.456;2023-05-22T12:53:33;59242.53;;;-146.93;25.96
21664;BME280;10993;52.510;13.456;2023-05-22T12:58:33;59181.75;;;-146.93;25.82
21664;BME280;10993;52.510;13.456;2023-05-22T13:03:33;59173.66;;;-146.93;25.77
21664;BME280;10993;52.510;13.456;2023-05-22T13:08:35;59293.19;;;-146.93;25.69
21664;BME280;10993;52.510;13.456;2023-05-22T13:13:36;59181.75;;;-146.93;25.30
21664;BME280;10993;52.510;13.456;2023-05-22T13:18:36;59048.03;;;-146.93;25.58
21664;BME280;10993;52.510;13.456;2023-05-22T13:23:38;59177.69;;;-146.93;25.47
21664;BME280;10993;52.510;13.456;2023-05-22T13:28:38;59191.88;;;-146.93;25.18
21664;BME280;10993;52.510;13.456;2023-05-22T13:33:38;59208.09;;;-146.93;24.91
21664;BME280;10993;52.510;13.456;2023-05-22T13:38:42;59031.81;;;-146.93;25.00
21664;BME280;10993;52.510;13.456;2023-05-22T13:43:43;59187.84;;;-146.93;24.60
21664;BME280;10993;52.510;13.456;2023-05-22T13:48:43;59104.75;;;-146.93;24.79
21664;BME280;10993;52.510;13.456;2023-05-22T13:53:45;59149.34;;;-146.93;24.92
21664;BME280;10993;52.510;13.456;2023-05-22T13:58:45;59151.38;;;-146.93;24.58
21664;BME280;10993;52.510;13.456;2023-05-22T14:03:45;59206.06;;;-146.93;24.58
21664;BME280;10993;52.510;13.456;2023-05-22T14:08:47;59230.38;;;-146.93;24.23
21664;BME280;10993;52.510;13.456;2023-05-22T14:13:48;59169.59;;;-146.93;24.51
21664;BME280;10993;52.510;13.456;2023-05-22T14:18:49;59293.19;;;-146.93;24.47
21664;BME280;10993;52.510;13.456;2023-05-22T14:23:50;59191.88;;;-146.93;24.31
21664;BME280;10993;52.510;13.456;2023-05-22T14:28:51;59206.06;;;-146.93;24.49
21664;BME280;10993;52.510;13.456;2023-05-22T14:33:52;59147.31;;;-146.93;24.32
21664;BME280;10993;52.510;13.456;2023-05-22T14:38:55;59226.34;;;-146.93;24.38
21664;BME280;10993;52.510;13.456;2023-05-22T14:43:56;59214.19;;;-146.93;24.14
21664;BME280;10993;52.510;13.456;2023-05-22T14:48:56;59327.66;;;-146.93;24.03
21664;BME280;10993;52.510;13.456;2023-05-22T14:53:58;59260.78;;;-146.93;24.27
21664;BME280;10993;52.510;13.456;2023-05-22T14:58:58;59096.66;;;-146.93;24.25
21664;BME280;10993;52.510;13.456;2023-05-22T15:03:58;59092.59;;;-146.93;24.27
21664;BME280;10993;52.510;13.456;2023-05-22T15:09:00;59041.94;;;-146.93;24.11
21664;BME280;10993;52.510;13.456;2023-05-22T15:14:00;58962.94;;;-146.93;24.29
21664;BME280;10993;52.510;13.456;2023-05-22T15:19:01;59021.69;;;-146.93;24.14
21664;BME280;10993;52.510;13.456;2023-05-22T15:24:03;59052.06;;;-146.93;23.98
21664;BME280;10993;52.510;13.456;2023-05-22T15:29:03;58985.22;;;-146.93;24.22
21664;BME280;10993;52.510;13.456;2023-05-22T15:34:03;58987.25;;;-146.93;24.51
21664;BME280;10993;52.510;13.456;2023-05-22T15:39:05;59120.97;;;-146.93;24.12
21664;BME280;10993;52.510;13.456;2023-05-22T15:44:08;59019.66;;;-146.93;24.01
21664;BME280;10993;52.510;13.456;2023-05-22T15:49:09;59066.25;;;-146.93;24.01
21664;BME280;10993;52.510;13.456;2023-05-22T15:54:10;58898.09;;;-146.93;24.34
21664;BME280;10993;52.510;13.456;2023-05-22T15:59:11;58942.66;;;-146.93;24.38
21664;BME280;10993;52.510;13.456;2023-05-22T16:04:11;58867.69;;;-146.93;24.46
21664;BME280;10993;52.510;13.456;2023-05-22T16:09:13;58760.31;;;-146.93;24.69
21664;BME280;10993;52.510;13.456;2023-05-22T16:14:15;58727.91;;;-146.93;24.66
21664;BME280;10993;52.510;13.456;2023-05-22T16:19:15;58825.16;;;-146.93;24.75
21664;BME280;10993;52.510;13.456;2023-05-22T16:24:17;59005.47;;;-146.93;24.44
21664;BME280;10993;52.510;13.456;2023-05-22T16:29:17;58938.63;;;-146.93;24.42
21664;BME280;10993;52.510;13.456;2023-05-22T16:34:19;58902.16;;;-146.93;24.71
21664;BME280;10993;52.510;13.456;2023-05-22T16:39:21;58839.34;;;-146.93;24.51
21664;BME280;10993;52.510;13.456;2023-05-22T16:44:21;58802.88;;;-146.93;24.82
21664;BME280;10993;52.510;13.456;2023-05-22T16:49:22;58683.34;;;-146.93;24.86
21664;BME280;10993;52.510;13.456;2023-05-22T16:54:23;58691.44;;;-146.93;24.97
21664;BME280;10993;52.510;13.456;2023-05-22T16:59:24;58916.31;;;-146.93;25.03
21664;BME280;10993;52.510;13.456;2023-05-22T17:04:24;58752.22;;;-146.93;25.19
21664;BME280;10993;52.510;13.456;2023-05-22T17:09:26;58687.38;;;-146.93;25.17
21664;BME280;10993;52.510;13.456;2023-05-22T17:14:26;58695.50;;;-146.93;25.30
21664;BME280;10993;52.510;13.456;2023-05-22T17:19:27;58604.31;;;-146.93;25.43
21664;BME280;10993;52.510;13.456;2023-05-22T17:24:29;58600.28;;;-146.93;25.38
21664;BME280;10993;52.510;13.456;2023-05-22T17:29:30;58525.31;;;-146.93;25.63
21664;BME280;10993;52.510;13.456;2023-05-22T17:34:30;58592.16;;;-146.93;25.54
21664;BME280;10993;52.510;13.456;2023-05-22T17:39:32;58531.38;;;-146.93;25.63
21664;BME280;10993;52.510;13.456;2023-05-22T17:44:33;58501.00;;;-146.93;25.86
21664;BME280;10993;52.510;13.456;2023-05-22T17:49:33;58428.06;;;-146.93;25.76
21664;BME280;10993;52.510;13.456;2023-05-22T17:54:35;58424.03;;;-146.93;25.99
21664;BME280;10993;52.510;13.456;2023-05-22T17:59:35;58367.31;;;-146.93;25.86
21664;BME280;10993;52.510;13.456;2023-05-22T18:04:36;58349.06;;;-146.93;26.02
21664;BME280;10993;52.510;13.456;2023-05-22T18:09:37;58288.28;;;-146.93;26.13
21664;BME280;10993;52.510;13.456;2023-05-22T18:14:38;58286.28;;;-146.93;26.20
21664;BME280;10993;52.510;13.456;2023-05-22T18:19:38;58257.91;;;-146.93;26.36
21664;BME280;10993;52.510;13.456;2023-05-22T18:24:40;58229.53;;;-146.93;26.39
21664;BME280;10993;52.510;13.456;2023-05-22T18:29:40;58178.91;;;-146.93;26.66
21664;BME280;10993;52.510;13.456;2023-05-22T18:34:41;58174.84;;;-146.93;26.87
21664;BME280;10993;52.510;13.456;2023-05-22T18:39:44;58160.69;;;-146.93;27.24
21664;BME280;10993;52.510;13.456;2023-05-22T18:44:45;58087.75;;;-146.93;27.29
21664;BME280;10993;52.510;13.456;2023-05-22T18:49:45;58006.72;;;-146.93;27.56
21664;BME280;10993;52.510;13.456;2023-05-22T18:54:47;58039.13;;;-146.93;27.49
21664;BME280;10993;52.510;13.456;2023-05-22T18:59:48;57968.25;;;-146.93;27.64
21664;BME280;10993;52.510;13.456;2023-05-22T19:04:49;58197.13;;;-146.93;27.91
21664;BME280;10993;52.510;13.456;2023-05-22T19:09:51;57954.06;;;-146.93;27.88
21664;BME280;10993;52.510;13.456;2023-05-22T19:14:51;57856.84;;;-146.93;27.81
21664;BME280;10993;52.510;13.456;2023-05-22T19:19:51;57881.16;;;-146.93;28.04
21664;BME280;10993;52.510;13.456;2023-05-22T19:24:53;57907.47;;;-146.93;28.05
21664;BME280;10993;52.510;13.456;2023-05-22T19:29:53;57856.84;;;-146.93;28.09
21664;BME280;10993;52.510;13.456;2023-05-22T19:34:53;57792.03;;;-146.93;28.28
21664;BME280;10993;52.510;13.456;2023-05-22T19:39:56;57725.19;;;-146.93;28.60
21664;BME280;10993;52.510;13.456;2023-05-22T19:44:56;57715.06;;;-146.93;28.53
21664;BME280;10993;52.510;13.456;2023-05-22T19:49:56;57723.16;;;-146.93;28.83
21664;BME280;10993;52.510;13.456;2023-05-22T19:54:58;57700.88;;;-146.93;29.00
21664;BME280;10993;52.510;13.456;2023-05-22T19:59:58;57676.59;;;-146.93;29.13
21664;BME280;10993;52.510;13.456;2023-05-22T20:04:59;57654.31;;;-146.93;29.11
21664;BME280;10993;52.510;13.456;2023-05-22T20:10:02;57613.78;;;-146.93;29.41
21664;BME280;10993;52.510;13.456;2023-05-22T20:15:06;57950.00;;;-146.93;29.55
21664;BME280;10993;52.510;13.456;2023-05-22T20:20:07;57595.56;;;-146.93;29.87
21664;BME280;10993;52.510;13.456;2023-05-22T20:25:10;57508.47;;;-146.93;29.95
21664;BME280;10993;52.510;13.456;2023-05-22T20:30:11;57520.63;;;-146.93;30.16
21664;BME280;10993;52.510;13.456;2023-05-22T20:35:11;57538.84;;;-146.93;30.34
21664;BME280;10993;52.510;13.456;2023-05-22T20:40:14;57459.88;;;-146.93;30.42
21664;BME280;10993;52.510;13.456;2023-05-22T20:45:15;57482.16;;;-146.93;30.53
21664;BME280;10993;52.510;13.456;2023-05-22T20:50:16;57512.53;;;-146.93;30.81
21664;BME280;10993;52.510;13.456;2023-05-22T20:55:21;57472.03;;;-146.93;30.95
21664;BME280;10993;52.510;13.456;2023-05-22T21:00:21;57470.00;;;-146.93;31.15
21664;BME280;10993;52.510;13.456;2023-05-22T21:05:21;57401.16;;;-146.93;31.24
21664;BME280;10993;52.510;13.456;2023-05-22T21:10:23;57366.72;;;-146.93;31.46
21664;BME280;10993;52.510;13.456;2023-05-22T21:15:23;57354.56;;;-146.93;31.60
21664;BME280;10993;52.510;13.456;2023-05-22T21:20:25;57346.47;;;-146.93;31.49
21664;BME280;10993;52.510;13.456;2023-05-22T21:25:26;57411.28;;;-146.93;31.77
21664;BME280;10993;52.510;13.456;2023-05-22T21:30:27;57407.22;;;-146.93;31.72
21664;BME280;10993;52.510;13.456;2023-05-22T21:35:27;57411.28;;;-146.93;31.76
21664;BME280;10993;52.510;13.456;2023-05-22T21:40:29;57413.28;;;-146.93;31.87
21664;BME280;10993;52.510;13.456;2023-05-22T21:45:29;57391.00;;;-146.93;31.98
21664;BME280;10993;52.510;13.456;2023-05-22T21:50:30;57324.19;;;-146.93;32.21
21664;BME280;10993;52.510;13.456;2023-05-22T21:55:32;57362.66;;;-146.93;32.21
21664;BME280;10993;52.510;13.456;2023-05-22T22:00:32;57334.31;;;-146.93;32.11
21664;BME280;10993;52.510;13.456;2023-05-22T22:05:34;57265.47;;;-146.93;32.36
21664;BME280;10993;52.510;13.456;2023-05-22T22:10:36;57314.06;;;-146.93;32.56
21664;BME280;10993;52.510;13.456;2023-05-22T22:15:36;57233.06;;;-146.93;32.66
21664;BME280;10993;52.510;13.456;2023-05-22T22:20:36;57297.84;;;-146.93;32.71
21664;BME280;10993;52.510;13.456;2023-05-22T22:25:38;57297.84;;;-146.93;32.84
21664;BME280;10993;52.510;13.456;2023-05-22T22:30:39;57235.09;;;-146.93;32.89
21664;BME280;10993;52.510;13.456;2023-05-22T22:35:39;57293.81;;;-146.93;33.13
21664;BME280;10993;52.510;13.456;2023-05-22T22:40:41;57125.72;;;-146.93;32.88
21664;BME280;10993;52.510;13.456;2023-05-22T22:45:41;57283.69;;;-146.93;33.00
21664;BME280;10993;52.510;13.456;2023-05-22T22:50:42;57224.97;;;-146.93;32.96
21664;BME280;10993;52.510;13.456;2023-05-22T22:55:46;57253.31;;;-146.93;33.02
21664;BME280;10993;52.510;13.456;2023-05-22T23:00:47;57291.78;;;-146.93;33.15
21664;BME280;10993;52.510;13.456;2023-05-22T23:05:47;57273.56;;;-146.93;32.95
21664;BME280;10993;52.510;13.456;2023-05-22T23:10:49;57237.09;;;-146.93;33.06
21664;BME280;10993;52.510;13.456;2023-05-22T23:15:49;57281.66;;;-146.93;33.07
21664;BME280;10993;52.510;13.456;2023-05-22T23:20:50;57277.59;;;-146.93;33.05
21664;BME280;10993;52.510;13.456;2023-05-22T23:25:51;57050.81;;;-146.93;33.36
21664;BME280;10993;52.510;13.456;2023-05-22T23:30:52;57255.34;;;-146.93;33.29
21664;BME280;10993;52.510;13.456;2023-05-22T23:35:52;57220.91;;;-146.93;33.04
21664;BME280;10993;52.510;13.456;2023-05-22T23:40:53;57214.84;;;-146.93;33.48
21664;BME280;10993;52.510;13.456;2023-05-22T23:45:54;57212.81;;;-146.93;33.48
21664;BME280;10993;52.510;13.456;2023-05-22T23:50:54;57220.91;;;-146.93;33.56
21664;BME280;10993;52.510;13.456;2023-05-22T23:55:56;57202.69;;;-146.93;33.67
